sensor_id;sensor_type;location;lat;lon;timestamp;P1;durP1;ratioP1;P2;durP2;ratioP2
15256;SDS011;7731;50.720;6.912;2023-09-07T00:01:22;7.18;;;6.47;;
15256;SDS011;7731;50.720;6.912;2023-09-07T00:03:55;6.97;;;6.38;;
15256;SDS011;7731;50.720;6.912;2023-09-07T00:06:26;7.80;;;6.20;;
15256;SDS011;7731;50.720;6.912;2023-09-07T00:08:56;9.15;;;6.55;;
15256;SDS011;7731;50.720;6.912;2023-09-07T00:11:29;8.77;;;6.70;;
15256;SDS011;7731;50.720;6.912;2023-09-07T00:14:00;7.32;;;6.47;;
15256;SDS011;7731;50.720;6.912;2023-09-07T00:16:31;7.70;;;6.28;;
15256;SDS011;7731;50.720;6.912;2023-09-07T00:19:05;6.70;;;6.10;;
15256;SDS011;7731;50.720;6.912;2023-09-07T00:21:45;7.60;;;6.70;;
15256;SDS011;7731;50.720;6.912;2023-09-07T00:24:18;6.95;;;6.35;;
15256;SDS011;7731;50.720;6.912;2023-09-07T00:26:49;9.20;;;6.63;;
15256;SDS011;7731;50.720;6.912;2023-09-07T00:29:20;8.20;;;6.57;;
15256;SDS011;7731;50.720;6.912;2023-09-07T00:31:50;7.60;;;6.80;;
15256;SDS011;7731;50.720;6.912;2023-09-07T00:34:23;6.90;;;6.30;;
15256;SDS011;7731;50.720;6.912;2023-09-07T00:36:56;7.45;;;6.45;;
15256;SDS011;7731;50.720;6.912;2023-09-07T00:39:27;6.93;;;6.22;;
15256;SDS011;7731;50.720;6.912;2023-09-07T00:41:57;7.45;;;6.40;;
15256;SDS011;7731;50.720;6.912;2023-09-07T00:44:27;9.43;;;6.72;;
15256;SDS011;7731;50.720;6.912;2023-09-07T00:46:58;9.43;;;6.40;;
15256;SDS011;7731;50.720;6.912;2023-09-07T00:49:31;8.70;;;6.35;;
15256;SDS011;7731;50.720;6.912;2023-09-07T00:52:02;8.80;;;6.68;;
15256;SDS011;7731;50.720;6.912;2023-09-07T00:54:34;7.30;;;6.60;;
15256;SDS011;7731;50.720;6.912;2023-09-07T00:57:07;7.80;;;6.68;;
15256;SDS011;7731;50.720;6.912;2023-09-07T00:59:38;7.45;;;6.75;;
15256;SDS011;7731;50.720;6.912;2023-09-07T01:02:08;7.88;;;6.60;;
15256;SDS011;7731;50.720;6.912;2023-09-07T01:04:44;7.47;;;6.68;;
15256;SDS011;7731;50.720;6.912;2023-09-07T01:07:16;7.43;;;6.57;;
15256;SDS011;7731;50.720;6.912;2023-09-07T01:09:52;7.47;;;6.78;;
15256;SDS011;7731;50.720;6.912;2023-09-07T01:12:28;7.22;;;6.53;;
15256;SDS011;7731;50.720;6.912;2023-09-07T01:14:59;7.60;;;6.80;;
15256;SDS011;7731;50.720;6.912;2023-09-07T01:17:31;7.00;;;6.30;;
15256;SDS011;7731;50.720;6.912;2023-09-07T01:20:06;6.97;;;6.35;;
15256;SDS011;7731;50.720;6.912;2023-09-07T01:22:46;6.85;;;6.22;;
15256;SDS011;7731;50.720;6.912;2023-09-07T01:25:17;7.10;;;6.47;;
15256;SDS011;7731;50.720;6.912;2023-09-07T01:27:48;7.22;;;6.35;;
15256;SDS011;7731;50.720;6.912;2023-09-07T01:30:20;9.23;;;8.25;;
15256;SDS011;7731;50.720;6.912;2023-09-07T01:32:53;12.68;;;9.20;;
15256;SDS011;7731;50.720;6.912;2023-09-07T01:35:23;10.98;;;8.93;;
15256;SDS011;7731;50.720;6.912;2023-09-07T01:37:58;10.60;;;9.50;;
15256;SDS011;7731;50.720;6.912;2023-09-07T01:40:29;10.43;;;9.27;;
15256;SDS011;7731;50.720;6.912;2023-09-07T01:42:59;10.90;;;9.07;;
15256;SDS011;7731;50.720;6.912;2023-09-07T01:45:29;9.68;;;7.95;;
15256;SDS011;7731;50.720;6.912;2023-09-07T01:47:59;9.25;;;8.35;;
15256;SDS011;7731;50.720;6.912;2023-09-07T01:50:30;9.35;;;8.35;;
15256;SDS011;7731;50.720;6.912;2023-09-07T01:53:03;9.55;;;7.85;;
15256;SDS011;7731;50.720;6.912;2023-09-07T01:55:34;9.43;;;8.00;;
15256;SDS011;7731;50.720;6.912;2023-09-07T01:58:05;9.57;;;7.93;;
15256;SDS011;7731;50.720;6.912;2023-09-07T02:00:38;8.80;;;7.97;;
15256;SDS011;7731;50.720;6.912;2023-09-07T02:03:09;9.05;;;7.38;;
15256;SDS011;7731;50.720;6.912;2023-09-07T02:05:39;7.22;;;6.50;;
15256;SDS011;7731;50.720;6.912;2023-09-07T02:08:15;7.00;;;6.40;;
15256;SDS011;7731;50.720;6.912;2023-09-07T02:10:45;7.60;;;6.85;;
15256;SDS011;7731;50.720;6.912;2023-09-07T02:13:15;6.75;;;6.07;;
15256;SDS011;7731;50.720;6.912;2023-09-07T02:15:46;7.40;;;6.78;;
15256;SDS011;7731;50.720;6.912;2023-09-07T02:18:16;7.85;;;6.88;;
15256;SDS011;7731;50.720;6.912;2023-09-07T02:20:46;7.65;;;6.85;;
15256;SDS011;7731;50.720;6.912;2023-09-07T02:23:20;6.82;;;6.10;;
15256;SDS011;7731;50.720;6.912;2023-09-07T02:25:50;7.43;;;6.72;;
15256;SDS011;7731;50.720;6.912;2023-09-07T02:28:20;7.80;;;6.85;;
15256;SDS011;7731;50.720;6.912;2023-09-07T02:30:51;7.07;;;6.38;;
15256;SDS011;7731;50.720;6.912;2023-09-07T02:33:21;7.57;;;6.88;;
15256;SDS011;7731;50.720;6.912;2023-09-07T02:35:52;7.85;;;6.20;;
15256;SDS011;7731;50.720;6.912;2023-09-07T02:38:25;7.65;;;6.95;;
15256;SDS011;7731;50.720;6.912;2023-09-07T02:40:56;7.85;;;6.88;;
15256;SDS011;7731;50.720;6.912;2023-09-07T02:43:29;7.03;;;6.30;;
15256;SDS011;7731;50.720;6.912;2023-09-07T02:46:00;7.93;;;6.72;;
15256;SDS011;7731;50.720;6.912;2023-09-07T02:48:30;7.40;;;6.70;;
15256;SDS011;7731;50.720;6.912;2023-09-07T02:51:01;8.32;;;7.50;;
15256;SDS011;7731;50.720;6.912;2023-09-07T02:53:34;8.00;;;7.15;;
15256;SDS011;7731;50.720;6.912;2023-09-07T02:56:05;8.02;;;7.22;;
15256;SDS011;7731;50.720;6.912;2023-09-07T02:58:37;7.22;;;6.53;;
15256;SDS011;7731;50.720;6.912;2023-09-07T03:01:08;8.02;;;7.28;;
15256;SDS011;7731;50.720;6.912;2023-09-07T03:03:40;7.80;;;7.03;;
15256;SDS011;7731;50.720;6.912;2023-09-07T03:06:10;7.45;;;6.65;;
15256;SDS011;7731;50.720;6.912;2023-09-07T03:08:45;7.95;;;7.15;;
15256;SDS011;7731;50.720;6.912;2023-09-07T03:11:16;11.77;;;7.43;;
15256;SDS011;7731;50.720;6.912;2023-09-07T03:13:46;9.15;;;7.05;;
15256;SDS011;7731;50.720;6.912;2023-09-07T03:16:17;7.53;;;6.82;;
15256;SDS011;7731;50.720;6.912;2023-09-07T03:18:47;7.55;;;6.85;;
15256;SDS011;7731;50.720;6.912;2023-09-07T03:21:17;8.70;;;7.65;;
15256;SDS011;7731;50.720;6.912;2023-09-07T03:23:54;7.78;;;7.07;;
15256;SDS011;7731;50.720;6.912;2023-09-07T03:26:24;7.57;;;6.50;;
15256;SDS011;7731;50.720;6.912;2023-09-07T03:28:55;8.63;;;7.72;;
15256;SDS011;7731;50.720;6.912;2023-09-07T03:31:25;8.57;;;7.72;;
15256;SDS011;7731;50.720;6.912;2023-09-07T03:33:56;8.60;;;7.70;;
15256;SDS011;7731;50.720;6.912;2023-09-07T03:36:26;9.07;;;8.18;;
15256;SDS011;7731;50.720;6.912;2023-09-07T03:38:59;8.15;;;7.45;;
15256;SDS011;7731;50.720;6.912;2023-09-07T03:41:29;11.85;;;9.02;;
15256;SDS011;7731;50.720;6.912;2023-09-07T03:44:00;12.82;;;11.00;;
15256;SDS011;7731;50.720;6.912;2023-09-07T03:46:30;8.18;;;7.47;;
15256;SDS011;7731;50.720;6.912;2023-09-07T03:49:01;8.20;;;7.40;;
15256;SDS011;7731;50.720;6.912;2023-09-07T03:51:32;8.15;;;7.38;;
15256;SDS011;7731;50.720;6.912;2023-09-07T03:54:05;7.32;;;6.72;;
15256;SDS011;7731;50.720;6.912;2023-09-07T03:56:35;8.10;;;6.88;;
15256;SDS011;7731;50.720;6.912;2023-09-07T03:59:06;8.80;;;6.82;;
15256;SDS011;7731;50.720;6.912;2023-09-07T04:01:37;9.48;;;6.82;;
15256;SDS011;7731;50.720;6.912;2023-09-07T04:04:08;7.10;;;6.40;;
15256;SDS011;7731;50.720;6.912;2023-09-07T04:06:40;8.48;;;6.32;;
15256;SDS011;7731;50.720;6.912;2023-09-07T04:09:18;6.70;;;6.00;;
15256;SDS011;7731;50.720;6.912;2023-09-07T04:11:48;6.97;;;6.38;;
15256;SDS011;7731;50.720;6.912;2023-09-07T04:14:18;7.50;;;6.70;;
15256;SDS011;7731;50.720;6.912;2023-09-07T04:16:50;7.63;;;6.60;;
15256;SDS011;7731;50.720;6.912;2023-09-07T04:19:20;9.25;;;6.80;;
15256;SDS011;7731;50.720;6.912;2023-09-07T04:21:50;7.03;;;6.43;;
15256;SDS011;7731;50.720;6.912;2023-09-07T04:24:26;7.43;;;6.43;;
15256;SDS011;7731;50.720;6.912;2023-09-07T04:26:58;8.93;;;6.57;;
15256;SDS011;7731;50.720;6.912;2023-09-07T04:29:29;8.20;;;6.97;;
15256;SDS011;7731;50.720;6.912;2023-09-07T04:32:00;8.18;;;6.18;;
15256;SDS011;7731;50.720;6.912;2023-09-07T04:34:30;8.13;;;6.78;;
15256;SDS011;7731;50.720;6.912;2023-09-07T04:37:01;7.03;;;6.22;;
15256;SDS011;7731;50.720;6.912;2023-09-07T04:39:35;9.13;;;5.90;;
15256;SDS011;7731;50.720;6.912;2023-09-07T04:42:06;6.53;;;5.90;;
15256;SDS011;7731;50.720;6.912;2023-09-07T04:44:36;6.97;;;6.28;;
15256;SDS011;7731;50.720;6.912;2023-09-07T04:47:07;7.13;;;6.38;;
15256;SDS011;7731;50.720;6.912;2023-09-07T04:49:37;7.00;;;6.25;;
15256;SDS011;7731;50.720;6.912;2023-09-07T04:52:08;8.25;;;6.50;;
15256;SDS011;7731;50.720;6.912;2023-09-07T04:54:40;7.25;;;6.38;;
15256;SDS011;7731;50.720;6.912;2023-09-07T04:57:11;6.13;;;5.63;;
15256;SDS011;7731;50.720;6.912;2023-09-07T04:59:42;6.82;;;6.18;;
15256;SDS011;7731;50.720;6.912;2023-09-07T05:02:13;6.65;;;5.93;;
15256;SDS011;7731;50.720;6.912;2023-09-07T05:04:44;6.25;;;5.75;;
15256;SDS011;7731;50.720;6.912;2023-09-07T05:07:14;6.93;;;6.25;;
15256;SDS011;7731;50.720;6.912;2023-09-07T05:09:47;6.68;;;5.88;;
15256;SDS011;7731;50.720;6.912;2023-09-07T05:12:17;6.97;;;6.30;;
15256;SDS011;7731;50.720;6.912;2023-09-07T05:14:50;6.88;;;6.20;;
15256;SDS011;7731;50.720;6.912;2023-09-07T05:17:20;10.88;;;6.65;;
15256;SDS011;7731;50.720;6.912;2023-09-07T05:19:51;7.72;;;6.72;;
15256;SDS011;7731;50.720;6.912;2023-09-07T05:22:22;8.68;;;6.50;;
15256;SDS011;7731;50.720;6.912;2023-09-07T05:24:59;5.82;;;5.18;;
15256;SDS011;7731;50.720;6.912;2023-09-07T05:27:30;8.27;;;6.00;;
15256;SDS011;7731;50.720;6.912;2023-09-07T05:30:00;7.50;;;5.95;;
15256;SDS011;7731;50.720;6.912;2023-09-07T05:32:30;6.25;;;5.72;;
15256;SDS011;7731;50.720;6.912;2023-09-07T05:35:02;7.57;;;5.80;;
15256;SDS011;7731;50.720;6.912;2023-09-07T05:37:37;6.97;;;5.70;;
15256;SDS011;7731;50.720;6.912;2023-09-07T05:40:10;6.57;;;5.60;;
15256;SDS011;7731;50.720;6.912;2023-09-07T05:42:41;6.85;;;5.97;;
15256;SDS011;7731;50.720;6.912;2023-09-07T05:45:12;10.60;;;6.35;;
15256;SDS011;7731;50.720;6.912;2023-09-07T05:47:43;6.40;;;5.80;;
15256;SDS011;7731;50.720;6.912;2023-09-07T05:50:13;6.32;;;5.70;;
15256;SDS011;7731;50.720;6.912;2023-09-07T05:52:44;6.78;;;5.85;;
15256;SDS011;7731;50.720;6.912;2023-09-07T05:55:17;8.95;;;5.65;;
15256;SDS011;7731;50.720;6.912;2023-09-07T05:57:48;7.05;;;6.00;;
15256;SDS011;7731;50.720;6.912;2023-09-07T06:00:19;8.10;;;5.63;;
15256;SDS011;7731;50.720;6.912;2023-09-07T06:02:51;6.28;;;5.68;;
15256;SDS011;7731;50.720;6.912;2023-09-07T06:05:24;6.60;;;5.82;;
15256;SDS011;7731;50.720;6.912;2023-09-07T06:07:55;6.63;;;5.93;;
15256;SDS011;7731;50.720;6.912;2023-09-07T06:10:28;8.40;;;5.63;;
15256;SDS011;7731;50.720;6.912;2023-09-07T06:12:59;7.07;;;5.13;;
15256;SDS011;7731;50.720;6.912;2023-09-07T06:15:30;7.45;;;6.30;;
15256;SDS011;7731;50.720;6.912;2023-09-07T06:18:00;7.47;;;5.10;;
15256;SDS011;7731;50.720;6.912;2023-09-07T06:20:31;6.30;;;5.00;;
15256;SDS011;7731;50.720;6.912;2023-09-07T06:23:02;6.43;;;5.28;;
15256;SDS011;7731;50.720;6.912;2023-09-07T06:25:35;5.93;;;4.38;;
15256;SDS011;7731;50.720;6.912;2023-09-07T06:28:08;5.22;;;4.43;;
15256;SDS011;7731;50.720;6.912;2023-09-07T06:30:39;4.90;;;4.28;;
15256;SDS011;7731;50.720;6.912;2023-09-07T06:33:09;5.15;;;4.65;;
15256;SDS011;7731;50.720;6.912;2023-09-07T06:35:40;5.07;;;4.53;;
15256;SDS011;7731;50.720;6.912;2023-09-07T06:38:10;5.00;;;4.50;;
15256;SDS011;7731;50.720;6.912;2023-09-07T06:40:46;6.68;;;4.85;;
15256;SDS011;7731;50.720;6.912;2023-09-07T06:43:21;4.65;;;4.25;;
15256;SDS011;7731;50.720;6.912;2023-09-07T06:45:52;6.50;;;4.18;;
15256;SDS011;7731;50.720;6.912;2023-09-07T06:48:23;5.72;;;4.60;;
15256;SDS011;7731;50.720;6.912;2023-09-07T06:50:54;7.20;;;3.95;;
15256;SDS011;7731;50.720;6.912;2023-09-07T06:53:24;4.13;;;3.72;;
15256;SDS011;7731;50.720;6.912;2023-09-07T06:56:17;4.88;;;4.47;;
15256;SDS011;7731;50.720;6.912;2023-09-07T06:58:47;4.78;;;3.88;;
15256;SDS011;7731;50.720;6.912;2023-09-07T07:01:20;6.25;;;4.05;;
15256;SDS011;7731;50.720;6.912;2023-09-07T07:03:50;5.15;;;4.40;;
15256;SDS011;7731;50.720;6.912;2023-09-07T07:06:21;7.82;;;4.20;;
15256;SDS011;7731;50.720;6.912;2023-09-07T07:08:51;6.47;;;4.10;;
15256;SDS011;7731;50.720;6.912;2023-09-07T07:11:24;8.60;;;4.18;;
15256;SDS011;7731;50.720;6.912;2023-09-07T07:13:55;5.07;;;4.40;;
15256;SDS011;7731;50.720;6.912;2023-09-07T07:16:25;4.95;;;3.95;;
15256;SDS011;7731;50.720;6.912;2023-09-07T07:18:55;9.35;;;4.32;;
15256;SDS011;7731;50.720;6.912;2023-09-07T07:21:30;5.18;;;4.00;;
15256;SDS011;7731;50.720;6.912;2023-09-07T07:24:06;5.20;;;3.72;;
15256;SDS011;7731;50.720;6.912;2023-09-07T07:26:44;5.97;;;3.50;;
15256;SDS011;7731;50.720;6.912;2023-09-07T07:29:20;5.93;;;4.22;;
15256;SDS011;7731;50.720;6.912;2023-09-07T07:31:55;4.00;;;3.70;;
15256;SDS011;7731;50.720;6.912;2023-09-07T07:34:30;3.90;;;3.60;;
15256;SDS011;7731;50.720;6.912;2023-09-07T07:37:05;3.90;;;3.60;;
15256;SDS011;7731;50.720;6.912;2023-09-07T07:39:40;4.00;;;3.60;;
15256;SDS011;7731;50.720;6.912;2023-09-07T07:42:18;5.25;;;3.75;;
15256;SDS011;7731;50.720;6.912;2023-09-07T07:44:54;3.83;;;3.40;;
15256;SDS011;7731;50.720;6.912;2023-09-07T07:47:29;5.22;;;3.58;;
15256;SDS011;7731;50.720;6.912;2023-09-07T07:50:08;4.18;;;3.65;;
15256;SDS011;7731;50.720;6.912;2023-09-07T07:52:45;7.53;;;3.90;;
15256;SDS011;7731;50.720;6.912;2023-09-07T07:55:20;4.15;;;3.70;;
15256;SDS011;7731;50.720;6.912;2023-09-07T07:57:58;4.95;;;3.78;;
15256;SDS011;7731;50.720;6.912;2023-09-07T08:00:33;3.85;;;3.55;;
15256;SDS011;7731;50.720;6.912;2023-09-07T08:03:12;4.50;;;3.28;;
15256;SDS011;7731;50.720;6.912;2023-09-07T08:05:48;4.55;;;3.65;;
15256;SDS011;7731;50.720;6.912;2023-09-07T08:08:23;5.60;;;3.53;;
15256;SDS011;7731;50.720;6.912;2023-09-07T08:10:58;3.97;;;3.60;;
15256;SDS011;7731;50.720;6.912;2023-09-07T08:13:39;3.80;;;3.50;;
15256;SDS011;7731;50.720;6.912;2023-09-07T08:16:17;4.97;;;3.50;;
15256;SDS011;7731;50.720;6.912;2023-09-07T08:18:53;5.00;;;3.63;;
15256;SDS011;7731;50.720;6.912;2023-09-07T08:21:28;4.28;;;3.63;;
15256;SDS011;7731;50.720;6.912;2023-09-07T08:24:05;4.47;;;3.78;;
15256;SDS011;7731;50.720;6.912;2023-09-07T08:26:40;3.70;;;3.30;;
15256;SDS011;7731;50.720;6.912;2023-09-07T08:29:19;6.28;;;4.00;;
15256;SDS011;7731;50.720;6.912;2023-09-07T08:31:57;3.72;;;3.42;;
15256;SDS011;7731;50.720;6.912;2023-09-07T08:34:35;4.30;;;3.90;;
15256;SDS011;7731;50.720;6.912;2023-09-07T08:37:12;3.92;;;3.55;;
15256;SDS011;7731;50.720;6.912;2023-09-07T08:39:48;4.38;;;3.58;;
15256;SDS011;7731;50.720;6.912;2023-09-07T08:42:23;3.70;;;3.40;;
15256;SDS011;7731;50.720;6.912;2023-09-07T08:45:03;3.80;;;3.50;;
15256;SDS011;7731;50.720;6.912;2023-09-07T08:47:41;4.00;;;3.58;;
15256;SDS011;7731;50.720;6.912;2023-09-07T08:50:19;4.35;;;3.72;;
15256;SDS011;7731;50.720;6.912;2023-09-07T08:52:58;4.75;;;3.80;;
15256;SDS011;7731;50.720;6.912;2023-09-07T08:55:34;4.15;;;3.50;;
15256;SDS011;7731;50.720;6.912;2023-09-07T08:58:10;5.35;;;3.75;;
15256;SDS011;7731;50.720;6.912;2023-09-07T09:00:49;5.45;;;3.88;;
15256;SDS011;7731;50.720;6.912;2023-09-07T09:03:26;5.32;;;3.70;;
15256;SDS011;7731;50.720;6.912;2023-09-07T09:06:03;4.32;;;3.47;;
15256;SDS011;7731;50.720;6.912;2023-09-07T09:08:43;4.28;;;3.63;;
15256;SDS011;7731;50.720;6.912;2023-09-07T09:11:25;3.58;;;3.25;;
15256;SDS011;7731;50.720;6.912;2023-09-07T09:14:04;3.70;;;3.40;;
15256;SDS011;7731;50.720;6.912;2023-09-07T09:16:46;3.42;;;3.13;;
15256;SDS011;7731;50.720;6.912;2023-09-07T09:19:30;3.95;;;3.58;;
15256;SDS011;7731;50.720;6.912;2023-09-07T09:22:06;4.55;;;3.78;;
15256;SDS011;7731;50.720;6.912;2023-09-07T09:24:42;5.35;;;3.65;;
15256;SDS011;7731;50.720;6.912;2023-09-07T09:27:17;3.45;;;3.17;;
15256;SDS011;7731;50.720;6.912;2023-09-07T09:29:53;3.83;;;3.40;;
15256;SDS011;7731;50.720;6.912;2023-09-07T09:32:31;5.50;;;4.00;;
15256;SDS011;7731;50.720;6.912;2023-09-07T09:35:07;4.13;;;3.70;;
15256;SDS011;7731;50.720;6.912;2023-09-07T09:37:44;5.88;;;3.53;;
15256;SDS011;7731;50.720;6.912;2023-09-07T12:06:47;5.57;;;4.13;;
15256;SDS011;7731;50.720;6.912;2023-09-07T12:09:17;4.18;;;3.88;;
15256;SDS011;7731;50.720;6.912;2023-09-07T12:11:48;5.05;;;3.90;;
15256;SDS011;7731;50.720;6.912;2023-09-07T12:14:18;4.63;;;4.22;;
15256;SDS011;7731;50.720;6.912;2023-09-07T12:16:49;4.82;;;4.20;;
15256;SDS011;7731;50.720;6.912;2023-09-07T12:19:20;5.10;;;3.90;;
15256;SDS011;7731;50.720;6.912;2023-09-07T12:21:53;4.30;;;3.90;;
15256;SDS011;7731;50.720;6.912;2023-09-07T12:24:23;4.70;;;3.83;;
15256;SDS011;7731;50.720;6.912;2023-09-07T12:26:54;4.05;;;3.67;;
15256;SDS011;7731;50.720;6.912;2023-09-07T12:29:26;4.57;;;4.18;;
15256;SDS011;7731;50.720;6.912;2023-09-07T12:31:56;5.47;;;4.30;;
15256;SDS011;7731;50.720;6.912;2023-09-07T12:34:27;5.90;;;4.25;;
15256;SDS011;7731;50.720;6.912;2023-09-07T12:37:03;4.85;;;4.15;;
15256;SDS011;7731;50.720;6.912;2023-09-07T12:39:33;5.32;;;4.03;;
15256;SDS011;7731;50.720;6.912;2023-09-07T12:42:05;4.32;;;3.92;;
15256;SDS011;7731;50.720;6.912;2023-09-07T12:44:35;3.97;;;3.67;;
15256;SDS011;7731;50.720;6.912;2023-09-07T12:47:06;4.60;;;4.20;;
15256;SDS011;7731;50.720;6.912;2023-09-07T12:49:36;5.05;;;4.15;;
15256;SDS011;7731;50.720;6.912;2023-09-07T12:52:11;4.40;;;4.00;;
15256;SDS011;7731;50.720;6.912;2023-09-07T12:54:41;4.53;;;3.88;;
15256;SDS011;7731;50.720;6.912;2023-09-07T12:57:11;4.40;;;4.00;;
15256;SDS011;7731;50.720;6.912;2023-09-07T12:59:42;4.75;;;4.30;;
15256;SDS011;7731;50.720;6.912;2023-09-07T13:02:12;5.75;;;4.30;;
15256;SDS011;7731;50.720;6.912;2023-09-07T13:04:42;5.10;;;4.20;;
15256;SDS011;7731;50.720;6.912;2023-09-07T13:07:15;5.85;;;4.00;;
15256;SDS011;7731;50.720;6.912;2023-09-07T13:09:46;4.95;;;3.95;;
15256;SDS011;7731;50.720;6.912;2023-09-07T13:12:16;4.60;;;4.20;;
15256;SDS011;7731;50.720;6.912;2023-09-07T13:14:46;5.03;;;4.43;;
15256;SDS011;7731;50.720;6.912;2023-09-07T13:17:16;7.13;;;4.30;;
15256;SDS011;7731;50.720;6.912;2023-09-07T13:19:47;7.03;;;4.28;;
15256;SDS011;7731;50.720;6.912;2023-09-07T13:22:23;5.15;;;4.15;;
15256;SDS011;7731;50.720;6.912;2023-09-07T13:24:53;4.95;;;4.13;;
15256;SDS011;7731;50.720;6.912;2023-09-07T13:27:24;4.70;;;3.90;;
15256;SDS011;7731;50.720;6.912;2023-09-07T13:29:54;5.18;;;4.30;;
15256;SDS011;7731;50.720;6.912;2023-09-07T13:32:25;6.40;;;4.35;;
15256;SDS011;7731;50.720;6.912;2023-09-07T13:34:56;7.07;;;3.92;;
15256;SDS011;7731;50.720;6.912;2023-09-07T13:37:29;4.95;;;4.15;;
15256;SDS011;7731;50.720;6.912;2023-09-07T13:40:02;5.10;;;4.10;;
15256;SDS011;7731;50.720;6.912;2023-09-07T13:42:34;5.78;;;4.28;;
15256;SDS011;7731;50.720;6.912;2023-09-07T13:45:06;4.63;;;4.13;;
15256;SDS011;7731;50.720;6.912;2023-09-07T13:47:37;4.60;;;4.15;;
15256;SDS011;7731;50.720;6.912;2023-09-07T13:50:08;6.07;;;4.22;;
15256;SDS011;7731;50.720;6.912;2023-09-07T13:52:41;4.57;;;4.18;;
15256;SDS011;7731;50.720;6.912;2023-09-07T13:55:13;4.32;;;3.97;;
15256;SDS011;7731;50.720;6.912;2023-09-07T13:57:44;4.97;;;4.05;;
15256;SDS011;7731;50.720;6.912;2023-09-07T14:00:14;4.95;;;4.30;;
15256;SDS011;7731;50.720;6.912;2023-09-07T14:02:45;4.93;;;3.90;;
15256;SDS011;7731;50.720;6.912;2023-09-07T14:05:16;5.22;;;4.30;;
15256;SDS011;7731;50.720;6.912;2023-09-07T14:07:50;4.70;;;4.30;;
15256;SDS011;7731;50.720;6.912;2023-09-07T14:10:20;5.28;;;4.10;;
15256;SDS011;7731;50.720;6.912;2023-09-07T14:12:51;6.38;;;4.50;;
15256;SDS011;7731;50.720;6.912;2023-09-07T14:15:21;4.10;;;3.80;;
15256;SDS011;7731;50.720;6.912;2023-09-07T14:17:51;4.60;;;4.20;;
15256;SDS011;7731;50.720;6.912;2023-09-07T14:20:22;4.60;;;4.10;;
15256;SDS011;7731;50.720;6.912;2023-09-07T14:22:54;4.55;;;4.03;;
15256;SDS011;7731;50.720;6.912;2023-09-07T14:25:31;4.05;;;3.75;;
15256;SDS011;7731;50.720;6.912;2023-09-07T14:28:01;4.38;;;3.97;;
15256;SDS011;7731;50.720;6.912;2023-09-07T14:30:34;4.40;;;4.00;;
15256;SDS011;7731;50.720;6.912;2023-09-07T14:33:04;4.88;;;4.15;;
15256;SDS011;7731;50.720;6.912;2023-09-07T14:35:35;5.15;;;4.25;;
15256;SDS011;7731;50.720;6.912;2023-09-07T14:38:08;4.30;;;3.90;;
15256;SDS011;7731;50.720;6.912;2023-09-07T14:40:38;5.32;;;4.45;;
15256;SDS011;7731;50.720;6.912;2023-09-07T14:43:09;5.15;;;4.25;;
15256;SDS011;7731;50.720;6.912;2023-09-07T14:45:41;7.40;;;4.38;;
15256;SDS011;7731;50.720;6.912;2023-09-07T14:48:14;4.75;;;3.90;;
15256;SDS011;7731;50.720;6.912;2023-09-07T14:50:45;4.38;;;3.97;;
15256;SDS011;7731;50.720;6.912;2023-09-07T14:53:17;6.38;;;4.35;;
15256;SDS011;7731;50.720;6.912;2023-09-07T14:55:48;5.30;;;4.22;;
15256;SDS011;7731;50.720;6.912;2023-09-07T14:58:19;5.20;;;4.15;;
15256;SDS011;7731;50.720;6.912;2023-09-07T15:00:49;5.53;;;4.30;;
15256;SDS011;7731;50.720;6.912;2023-09-07T15:03:20;4.85;;;4.45;;
15256;SDS011;7731;50.720;6.912;2023-09-07T15:05:50;8.07;;;3.90;;
15256;SDS011;7731;50.720;6.912;2023-09-07T15:08:24;4.80;;;4.40;;
15256;SDS011;7731;50.720;6.912;2023-09-07T15:10:57;4.53;;;4.13;;
15256;SDS011;7731;50.720;6.912;2023-09-07T15:13:28;4.65;;;4.10;;
15256;SDS011;7731;50.720;6.912;2023-09-07T15:15:58;4.82;;;4.43;;
15256;SDS011;7731;50.720;6.912;2023-09-07T15:18:28;4.43;;;4.03;;
15256;SDS011;7731;50.720;6.912;2023-09-07T15:21:00;5.93;;;4.47;;
15256;SDS011;7731;50.720;6.912;2023-09-07T15:23:33;5.95;;;4.28;;
15256;SDS011;7731;50.720;6.912;2023-09-07T15:26:03;4.85;;;4.35;;
15256;SDS011;7731;50.720;6.912;2023-09-07T15:28:34;5.40;;;3.97;;
15256;SDS011;7731;50.720;6.912;2023-09-07T15:31:07;6.25;;;4.40;;
15256;SDS011;7731;50.720;6.912;2023-09-07T15:33:39;5.40;;;4.57;;
15256;SDS011;7731;50.720;6.912;2023-09-07T15:36:09;5.82;;;4.05;;
15256;SDS011;7731;50.720;6.912;2023-09-07T15:38:44;6.20;;;4.13;;
15256;SDS011;7731;50.720;6.912;2023-09-07T15:41:17;4.50;;;4.20;;
15256;SDS011;7731;50.720;6.912;2023-09-07T15:43:48;4.95;;;3.83;;
15256;SDS011;7731;50.720;6.912;2023-09-07T15:46:19;5.95;;;4.35;;
15256;SDS011;7731;50.720;6.912;2023-09-07T15:48:51;4.63;;;3.85;;
15256;SDS011;7731;50.720;6.912;2023-09-07T15:51:23;6.18;;;4.13;;
15256;SDS011;7731;50.720;6.912;2023-09-07T15:53:56;6.50;;;4.57;;
15256;SDS011;7731;50.720;6.912;2023-09-07T15:56:26;5.00;;;4.38;;
15256;SDS011;7731;50.720;6.912;2023-09-07T15:58:56;4.82;;;4.10;;
15256;SDS011;7731;50.720;6.912;2023-09-07T16:01:27;4.63;;;4.13;;
15256;SDS011;7731;50.720;6.912;2023-09-07T16:03:57;5.90;;;3.80;;
15256;SDS011;7731;50.720;6.912;2023-09-07T16:06:28;5.07;;;4.55;;
15256;SDS011;7731;50.720;6.912;2023-09-07T16:09:07;6.97;;;4.57;;
15256;SDS011;7731;50.720;6.912;2023-09-07T16:11:43;4.82;;;4.40;;
15256;SDS011;7731;50.720;6.912;2023-09-07T16:14:19;8.52;;;4.13;;
15256;SDS011;7731;50.720;6.912;2023-09-07T16:16:54;4.43;;;3.97;;
15256;SDS011;7731;50.720;6.912;2023-09-07T16:19:31;8.60;;;4.50;;
15256;SDS011;7731;50.720;6.912;2023-09-07T16:22:06;4.15;;;3.85;;
15256;SDS011;7731;50.720;6.912;2023-09-07T16:24:45;4.53;;;4.10;;
15256;SDS011;7731;50.720;6.912;2023-09-07T16:27:23;6.28;;;4.32;;
15256;SDS011;7731;50.720;6.912;2023-09-07T16:29:58;4.88;;;4.38;;
15256;SDS011;7731;50.720;6.912;2023-09-07T16:32:33;5.07;;;3.97;;
15256;SDS011;7731;50.720;6.912;2023-09-07T16:35:10;4.97;;;4.03;;
15256;SDS011;7731;50.720;6.912;2023-09-07T16:37:45;6.13;;;4.43;;
15256;SDS011;7731;50.720;6.912;2023-09-07T16:40:25;4.32;;;3.92;;
15256;SDS011;7731;50.720;6.912;2023-09-07T16:43:01;6.38;;;4.00;;
15256;SDS011;7731;50.720;6.912;2023-09-07T16:45:37;4.80;;;4.40;;
15256;SDS011;7731;50.720;6.912;2023-09-07T16:48:12;4.78;;;4.10;;
15256;SDS011;7731;50.720;6.912;2023-09-07T16:50:48;4.43;;;3.88;;
15256;SDS011;7731;50.720;6.912;2023-09-07T16:53:23;6.00;;;4.05;;
15256;SDS011;7731;50.720;6.912;2023-09-07T16:56:01;5.55;;;3.80;;
15256;SDS011;7731;50.720;6.912;2023-09-07T16:58:37;4.03;;;3.70;;
15256;SDS011;7731;50.720;6.912;2023-09-07T17:01:16;5.07;;;4.47;;
15256;SDS011;7731;50.720;6.912;2023-09-07T17:03:52;4.50;;;4.10;;
15256;SDS011;7731;50.720;6.912;2023-09-07T17:06:27;4.75;;;4.00;;
15256;SDS011;7731;50.720;6.912;2023-09-07T17:09:03;4.40;;;4.00;;
15256;SDS011;7731;50.720;6.912;2023-09-07T17:11:41;5.10;;;3.78;;
15256;SDS011;7731;50.720;6.912;2023-09-07T17:14:17;4.35;;;3.95;;
15256;SDS011;7731;50.720;6.912;2023-09-07T17:16:52;4.65;;;4.25;;
15256;SDS011;7731;50.720;6.912;2023-09-07T17:19:29;4.55;;;3.78;;
15256;SDS011;7731;50.720;6.912;2023-09-07T17:22:05;5.60;;;4.80;;
15256;SDS011;7731;50.720;6.912;2023-09-07T17:24:41;7.90;;;4.43;;
15256;SDS011;7731;50.720;6.912;2023-09-07T17:27:19;4.63;;;4.10;;
15256;SDS011;7731;50.720;6.912;2023-09-07T17:29:55;8.20;;;4.90;;
15256;SDS011;7731;50.720;6.912;2023-09-07T17:32:31;6.07;;;4.53;;
15256;SDS011;7731;50.720;6.912;2023-09-07T17:35:24;6.68;;;5.78;;
15256;SDS011;7731;50.720;6.912;2023-09-07T17:38:00;7.30;;;5.80;;
15256;SDS011;7731;50.720;6.912;2023-09-07T17:40:35;6.07;;;5.18;;
15256;SDS011;7731;50.720;6.912;2023-09-07T17:43:14;7.90;;;4.60;;
15256;SDS011;7731;50.720;6.912;2023-09-07T17:45:50;4.97;;;4.00;;
15256;SDS011;7731;50.720;6.912;2023-09-07T17:48:25;5.53;;;4.60;;
15256;SDS011;7731;50.720;6.912;2023-09-07T17:51:00;5.32;;;4.82;;
15256;SDS011;7731;50.720;6.912;2023-09-07T17:53:35;4.45;;;3.97;;
15256;SDS011;7731;50.720;6.912;2023-09-07T17:56:10;4.32;;;3.92;;
15256;SDS011;7731;50.720;6.912;2023-09-07T17:58:51;4.70;;;4.25;;
15256;SDS011;7731;50.720;6.912;2023-09-07T18:01:27;5.35;;;4.30;;